Time;durP1;ratioP1;P1;durP2;ratioP2;P2;SDS_P1;SDS_P2;PMS_P1;PMS_P2;Temp;Humidity;BMP_temperature;BMP_pressure;BME280_temperature;BME280_humidity;BME280_pressure;Samples;Min_cycle;Max_cycle;Signal;HPM_P1;HPM_P2
2022/01/04 00:01:11;;;;;;;61.22;33.70;;;;;;;4.84;nan;100560.66;5051526;28;20033;-71
2022/01/04 00:03:37;;;;;;;60.17;33.75;;;;;;;4.79;nan;100553.38;5033808;28;20136;-72
2022/01/04 00:06:02;;;;;;;63.05;33.47;;;;;;;4.83;nan;100549.41;5051313;28;20106;-72
2022/01/04 00:08:27;;;;;;;61.10;32.38;;;;;;;4.84;nan;100558.84;5051685;28;20036;-72
2022/01/04 00:11:06;;;;;;;59.55;33.13;;;;;;;4.85;nan;100557.06;5033461;28;20040;-71
2022/01/04 00:13:31;;;;;;;59.47;32.77;;;;;;;4.82;nan;100550.41;5051871;28;20423;-72
2022/01/04 00:15:57;;;;;;;62.53;33.17;;;;;;;4.86;nan;100549.06;5051334;28;20154;-72
2022/01/04 00:18:23;;;;;;;61.38;33.25;;;;;;;4.89;nan;100551.28;5054902;28;20031;-72
2022/01/04 00:20:49;;;;;;;62.00;32.58;;;;;;;4.83;nan;100543.38;5050869;28;20120;-72
2022/01/04 00:23:16;;;;;;;63.97;34.28;;;;;;;4.89;nan;100551.28;5051609;28;20036;-73
2022/01/04 00:25:42;;;;;;;66.10;34.95;;;;;;;4.87;nan;100540.22;5033509;28;20032;-72
2022/01/04 00:28:08;;;;;;;63.90;34.20;;;;;;;4.82;nan;100539.16;5053029;28;20463;-71
2022/01/04 00:30:35;;;;;;;64.53;34.03;;;;;;;4.80;nan;100533.31;5033225;28;20479;-72
2022/01/04 00:33:01;;;;;;;68.63;35.53;;;;;;;4.83;nan;100538.97;5033259;28;20391;-72
2022/01/04 00:35:26;;;;;;;70.03;36.42;;;;;;;4.80;nan;100535.94;5031487;28;20040;-72
2022/01/04 00:37:52;;;;;;;212.50;48.50;;;;;;;4.80;nan;100538.53;5025795;28;20487;-72
2022/01/04 00:40:17;;;;;;;68.97;35.88;;;;;;;4.79;nan;100539.50;5050646;28;20052;-72
2022/01/04 00:42:42;;;;;;;75.57;37.90;;;;;;;4.81;nan;100548.78;5053123;28;20095;-72
2022/01/04 00:45:08;;;;;;;74.43;38.72;;;;;;;4.78;nan;100541.31;5059070;28;20043;-72
2022/01/04 00:49:09;;;;;;;76.03;38.60;;;;;;;4.77;nan;100546.75;5033484;28;20395;-73
2022/01/04 00:50:26;;;;;;;70.38;35.70;;;;;;;4.77;nan;100542.31;5049234;28;20039;-73
2022/01/04 00:52:52;;;;;;;71.05;36.97;;;;;;;4.76;nan;100538.06;5051502;28;20056;-73
2022/01/04 00:55:18;;;;;;;69.05;36.28;;;;;;;4.72;nan;100538.63;5033039;28;20087;-73
2022/01/04 00:57:43;;;;;;;67.82;35.05;;;;;;;4.70;nan;100536.22;5050290;28;20059;-73
2022/01/04 01:00:11;;;;;;;62.28;34.30;;;;;;;4.76;nan;100539.88;5056898;28;20039;-73
2022/01/04 01:02:36;;;;;;;64.97;34.60;;;;;;;4.62;nan;100518.88;5030553;28;20151;-71
2022/01/04 01:05:03;;;;;;;63.72;35.30;;;;;;;4.71;nan;100526.59;5030240;28;20090;-74
2022/01/04 01:07:28;;;;;;;61.40;33.47;;;;;;;4.64;nan;100514.25;5029590;28;20068;-74
2022/01/04 01:12:21;;;;;;;61.28;32.15;;;;;;;4.54;nan;100502.50;5044861;28;20086;-73
2022/01/04 01:14:47;;;;;;;65.45;33.53;;;;;;;4.59;nan;100508.00;5051178;28;20029;-74
2022/01/04 01:17:12;;;;;;;58.08;31.27;;;;;;;4.61;nan;100512.03;5051076;28;20386;-74
2022/01/04 01:19:38;;;;;;;55.42;30.67;;;;;;;4.55;nan;100504.13;5051112;28;20060;-74
2022/01/04 01:22:04;;;;;;;54.92;30.25;;;;;;;4.48;nan;100499.66;5050610;28;20467;-74
2022/01/04 01:24:29;;;;;;;57.33;31.15;;;;;;;4.51;nan;100505.50;5051030;28;20124;-74
2022/01/04 01:26:54;;;;;;;56.65;30.08;;;;;;;4.54;nan;100513.75;5051041;28;20463;-74
2022/01/04 01:29:20;;;;;;;56.80;30.27;;;;;;;4.52;nan;100507.91;5035324;28;20410;-73
2022/01/04 01:31:45;;;;;;;57.17;30.73;;;;;;;4.54;nan;100511.13;5050886;28;20068;-74
2022/01/04 01:34:11;;;;;;;56.17;30.27;;;;;;;4.39;nan;100490.31;5053360;28;20052;-74
2022/01/04 01:36:36;;;;;;;51.20;29.17;;;;;;;4.27;nan;100468.31;5053678;28;20029;-74
2022/01/04 01:39:03;;;;;;;53.40;29.85;;;;;;;4.48;nan;100499.66;5053087;28;20041;-73
2022/01/04 01:41:29;;;;;;;57.50;31.02;;;;;;;4.52;nan;100509.72;5053551;28;20538;-74
2022/01/04 01:43:54;;;;;;;55.97;31.40;;;;;;;4.46;nan;100493.81;5053603;28;20132;-74
2022/01/04 01:46:19;;;;;;;55.47;30.10;;;;;;;4.42;nan;100489.94;5053637;28;20033;-74
2022/01/04 01:48:45;;;;;;;53.15;29.73;;;;;;;4.40;nan;100486.69;5036075;28;20670;-73
2022/01/04 01:51:10;;;;;;;56.47;31.15;;;;;;;4.36;nan;100487.28;5053478;28;20482;-73
2022/01/04 01:53:36;;;;;;;51.72;29.30;;;;;;;4.39;nan;100479.88;5054153;28;20040;-74
2022/01/04 01:56:02;;;;;;;54.65;29.58;;;;;;;4.36;nan;100471.63;5035603;28;20032;-73
2022/01/04 01:58:27;;;;;;;59.55;31.75;;;;;;;4.40;nan;100475.47;5049263;28;20390;-74
2022/01/04 02:00:52;;;;;;;54.25;29.77;;;;;;;4.28;nan;100453.47;5032995;28;20022;-74
2022/01/04 02:03:18;;;;;;;52.80;29.98;;;;;;;4.32;nan;100455.53;5036141;28;20029;-74
2022/01/04 02:05:43;;;;;;;54.47;29.80;;;;;;;4.33;nan;100467.56;5060156;28;20037;-73
2022/01/04 02:08:09;;;;;;;59.78;29.33;;;;;;;4.38;nan;100467.00;5054036;28;20044;-73
2022/01/04 02:10:35;;;;;;;55.75;29.55;;;;;;;4.36;nan;100469.81;5053886;28;20028;-74
2022/01/04 02:13:01;;;;;;;54.05;28.35;;;;;;;4.35;nan;100457.75;5053813;28;20391;-73
2022/01/04 02:15:29;;;;;;;54.38;28.98;;;;;;;4.26;nan;100438.00;5035725;28;20045;-73
2022/01/04 02:17:55;;;;;;;49.88;28.77;;;;;;;4.24;nan;100448.63;5053932;28;20094;-74
2022/01/04 02:20:20;;;;;;;50.58;29.50;;;;;;;4.24;nan;100438.19;5035469;28;20115;-73
2022/01/04 02:22:47;;;;;;;52.45;27.92;;;;;;;4.23;nan;100427.94;5035679;28;20121;-74
2022/01/04 02:25:13;;;;;;;53.75;29.10;;;;;;;4.28;nan;100430.81;5053852;28;20090;-73
2022/01/04 02:27:40;;;;;;;53.30;28.10;;;;;;;4.27;nan;100434.41;5035562;28;20490;-72
2022/01/04 02:30:10;;;;;;;51.08;28.88;;;;;;;4.17;nan;100413.84;5037505;28;20120;-74
2022/01/04 02:32:35;;;;;;;52.63;28.00;;;;;;;4.18;nan;100417.25;5053655;28;20390;-73
2022/01/04 02:35:02;;;;;;;49.13;28.00;;;;;;;4.17;nan;100416.47;5053156;28;20027;-74
2022/01/04 02:37:30;;;;;;;55.70;29.92;;;;;;;4.22;nan;100418.53;5052678;28;20060;-73
2022/01/04 02:39:56;;;;;;;46.15;26.92;;;;;;;4.12;nan;100397.97;5053142;28;20052;-74
2022/01/04 02:42:22;;;;;;;50.38;27.65;;;;;;;4.20;nan;100408.28;5035051;28;20032;-73
2022/01/04 02:44:47;;;;;;;53.75;29.58;;;;;;;4.13;nan;100394.34;5052840;28;20054;-74
2022/01/04 02:47:14;;;;;;;51.95;28.42;;;;;;;4.16;nan;100393.19;5053103;28;20029;-74
2022/01/04 02:49:41;;;;;;;50.67;27.38;;;;;;;4.17;nan;100390.41;5034652;28;20033;-73
2022/01/04 02:52:06;;;;;;;49.15;27.13;;;;;;;4.10;nan;100380.91;5034588;28;20056;-73
2022/01/04 02:54:32;;;;;;;57.30;29.38;;;;;;;3.95;nan;100373.91;5053147;28;20499;-73
2022/01/04 02:56:58;;;;;;;53.17;27.75;;;;;;;3.91;nan;100358.81;5052273;28;20025;-74
2022/01/04 02:59:23;;;;;;;54.65;28.75;;;;;;;3.96;nan;100370.31;5049211;28;20033;-74
2022/01/04 03:01:49;;;;;;;53.53;30.38;;;;;;;3.98;nan;100373.53;5052516;28;20037;-74
2022/01/04 03:04:14;;;;;;;57.72;29.85;;;;;;;3.95;nan;100362.66;5034363;28;20045;-73
2022/01/04 03:06:39;;;;;;;57.30;29.80;;;;;;;3.94;nan;100374.88;5034309;28;20115;-74
2022/01/04 03:09:06;;;;;;;59.55;30.23;;;;;;;3.84;nan;100361.34;5051713;28;20086;-73
2022/01/04 03:11:33;;;;;;;58.15;29.35;;;;;;;3.88;nan;100375.63;5052345;28;20383;-72
2022/01/04 03:13:59;;;;;;;53.67;30.40;;;;;;;3.77;nan;100369.06;5052407;28;20139;-71
2022/01/04 03:16:24;;;;;;;55.53;30.90;;;;;;;3.75;nan;100363.22;5052525;28;20545;-72
2022/01/04 03:19:09;;;;;;;56.83;30.65;;;;;;;3.72;nan;100358.38;5052588;28;20059;-74
2022/01/04 03:21:38;;;;;;;64.07;32.60;;;;;;;3.80;nan;100365.28;5052481;28;20059;-73
2022/01/04 03:24:05;;;;;;;61.35;32.42;;;;;;;3.80;nan;100368.69;5035755;28;20037;-73
2022/01/04 03:26:31;;;;;;;61.25;31.88;;;;;;;3.67;nan;100352.09;5035667;28;20057;-73
2022/01/04 03:28:57;;;;;;;64.15;31.90;;;;;;;3.78;nan;100370.69;5054228;28;20072;-72
2022/01/04 03:31:23;;;;;;;60.58;33.17;;;;;;;3.79;nan;100367.09;5034514;28;20432;-72
2022/01/04 03:33:49;;;;;;;64.57;33.70;;;;;;;3.76;nan;100357.03;5034132;28;20091;-72
2022/01/04 03:36:15;;;;;;;62.95;34.20;;;;;;;3.72;nan;100340.16;5052291;28;20482;-72
2022/01/04 03:38:41;;;;;;;64.40;34.45;;;;;;;3.75;nan;100346.78;5051697;28;20035;-72
2022/01/04 03:41:08;;;;;;;66.18;34.63;;;;;;;3.82;nan;100352.91;5034090;28;20044;-72
2022/01/04 03:43:34;;;;;;;65.07;35.10;;;;;;;3.86;nan;100358.56;5031388;28;20040;-73
2022/01/04 03:45:59;;;;;;;67.97;35.80;;;;;;;3.78;nan;100342.03;5034041;28;20039;-72
2022/01/04 03:48:25;;;;;;;67.55;35.47;;;;;;;3.78;nan;100336.84;5051713;28;20078;-72
2022/01/04 03:50:50;;;;;;;66.40;34.65;;;;;;;3.76;nan;100319.75;5045409;28;20055;-73
2022/01/04 03:53:16;;;;;;;65.43;35.45;;;;;;;3.89;nan;100350.38;5033543;28;20052;-73
2022/01/04 03:55:41;;;;;;;65.88;35.80;;;;;;;3.87;nan;100342.72;5051235;28;20123;-72
2022/01/04 03:58:06;;;;;;;68.18;35.10;;;;;;;3.89;nan;100339.97;5043398;28;20102;-72
2022/01/04 04:00:32;;;;;;;66.50;35.45;;;;;;;3.93;nan;100341.22;5052992;28;20029;-72
2022/01/04 04:02:57;;;;;;;69.05;36.55;;;;;;;3.87;nan;100332.31;5051878;28;20091;-71
2022/01/04 04:05:23;;;;;;;69.32;36.33;;;;;;;3.95;nan;100340.03;5033865;28;20085;-72
2022/01/04 04:07:48;;;;;;;68.47;36.58;;;;;;;3.90;nan;100331.94;5051670;28;20033;-73
2022/01/04 04:10:13;;;;;;;68.60;36.05;;;;;;;3.88;nan;100328.72;5033412;28;20025;-72
2022/01/04 04:12:39;;;;;;;76.32;38.40;;;;;;;3.90;nan;100328.53;5051467;28;20171;-73
2022/01/04 04:15:08;;;;;;;74.03;38.30;;;;;;;3.91;nan;100319.75;5033516;28;20037;-73
2022/01/04 04:17:34;;;;;;;;;;;;;;;3.98;nan;100325.84;5038617;28;20055;-72
2022/01/04 04:19:59;;;;;;;71.40;35.88;;;;;;;3.92;nan;100314.34;5051456;28;19913;-73
2022/01/04 04:22:25;;;;;;;77.40;37.78;;;;;;;3.98;nan;100305.78;5050926;28;20025;-72
2022/01/04 04:24:50;;;;;;;72.38;37.83;;;;;;;3.96;nan;100294.75;5033504;28;20037;-73
2022/01/04 04:27:16;;;;;;;75.78;38.50;;;;;;;3.96;nan;100302.56;5049850;28;20506;-74
2022/01/04 04:29:41;;;;;;;75.25;39.15;;;;;;;3.94;nan;100301.94;5050016;28;20040;-74
2022/01/04 04:32:08;;;;;;;76.28;39.38;;;;;;;3.83;nan;100289.38;5033337;28;20036;-72
2022/01/04 04:34:33;;;;;;;73.40;39.35;;;;;;;3.95;nan;100308.78;5034950;28;20110;-74
2022/01/04 04:36:59;;;;;;;74.60;39.28;;;;;;;3.96;nan;100304.38;5059160;28;20072;-73
2022/01/04 04:39:25;;;;;;;74.10;38.65;;;;;;;3.90;nan;100298.06;5033089;28;20045;-74
2022/01/04 04:41:50;;;;;;;77.75;39.15;;;;;;;3.94;nan;100314.97;5051306;28;20351;-73
2022/01/04 04:44:16;;;;;;;73.38;38.35;;;;;;;3.93;nan;100308.16;5033191;28;20052;-74
2022/01/04 04:46:42;;;;;;;76.10;38.28;;;;;;;3.90;nan;100303.28;5044843;28;20033;-73
2022/01/04 04:49:07;;;;;;;73.82;38.20;;;;;;;3.83;nan;100291.97;5032766;28;20048;-74
2022/01/04 04:51:33;;;;;;;73.07;38.00;;;;;;;3.90;nan;100311.09;5051369;28;20025;-74
2022/01/04 04:53:58;;;;;;;68.07;36.10;;;;;;;3.83;nan;100289.38;5033284;28;20033;-74
2022/01/04 04:56:24;;;;;;;73.43;38.17;;;;;;;3.83;nan;100292.81;5050983;28;20032;-73
2022/01/04 04:58:49;;;;;;;72.30;36.63;;;;;;;3.82;nan;100282.56;5038927;28;20538;-74
2022/01/04 05:01:15;;;;;;;68.22;37.13;;;;;;;3.76;nan;100272.88;5032874;28;20124;-74
2022/01/04 05:03:40;;;;;;;73.53;36.65;;;;;;;3.79;nan;100275.13;5033377;28;20124;-75
2022/01/04 05:06:05;;;;;;;74.70;37.67;;;;;;;3.80;nan;100285.34;5032914;28;20037;-74
2022/01/04 05:08:31;;;;;;;73.20;38.78;;;;;;;3.79;nan;100280.34;5053560;28;20060;-74
2022/01/04 05:10:57;;;;;;;70.43;36.97;;;;;;;3.73;nan;100274.03;5055144;28;20470;-73
2022/01/04 05:13:23;;;;;;;69.22;36.63;;;;;;;3.77;nan;100282.31;5054846;28;20482;-74
2022/01/04 05:15:49;;;;;;;74.80;37.60;;;;;;;3.76;nan;100286.72;5055075;28;20076;-74
2022/01/04 05:18:15;;;;;;;75.75;37.70;;;;;;;3.82;nan;100309.41;5054712;28;20029;-73
2022/01/04 05:20:40;;;;;;;71.53;38.17;;;;;;;3.76;nan;100301.53;5055193;28;20032;-74
2022/01/04 05:23:06;;;;;;;73.15;38.17;;;;;;;3.80;nan;100303.56;5054006;28;20029;-74
2022/01/04 05:25:31;;;;;;;76.10;38.88;;;;;;;3.75;nan;100300.72;5037019;28;20039;-74
2022/01/04 05:27:57;;;;;;;76.40;38.40;;;;;;;3.67;nan;100282.59;5036449;28;20086;-74
2022/01/04 05:30:22;;;;;;;75.03;37.95;;;;;;;3.74;nan;100293.91;5054717;28;20036;-73
2022/01/04 05:32:47;;;;;;;77.00;40.03;;;;;;;3.72;nan;100282.84;5054328;28;20017;-73
2022/01/04 05:35:13;;;;;;;77.88;39.95;;;;;;;3.79;nan;100301.19;5054500;28;20028;-74
2022/01/04 05:37:38;;;;;;;79.20;39.50;;;;;;;3.72;nan;100279.44;5036480;28;20044;-74
2022/01/04 05:40:04;;;;;;;74.57;37.78;;;;;;;3.74;nan;100285.28;5048611;28;20081;-74
2022/01/04 05:42:29;;;;;;;74.30;37.83;;;;;;;3.70;nan;100290.03;5045741;28;20554;-74
2022/01/04 05:44:55;;;;;;;68.80;36.13;;;;;;;3.70;nan;100292.66;5040614;28;20029;-74
2022/01/04 05:47:20;;;;;;;71.78;37.38;;;;;;;3.73;nan;100296.69;5043466;28;20530;-74
2022/01/04 05:49:45;;;;;;;77.28;38.30;;;;;;;3.63;nan;100276.94;5042525;28;20036;-74
2022/01/04 05:52:11;;;;;;;71.63;37.50;;;;;;;3.70;nan;100284.03;5041723;28;20029;-74
2022/01/04 05:54:36;;;;;;;72.07;37.45;;;;;;;3.68;nan;100288.63;5045275;28;20075;-74
2022/01/04 05:57:02;;;;;;;79.10;39.05;;;;;;;3.72;nan;100305.50;5041670;28;20033;-73
2022/01/04 05:59:27;;;;;;;73.82;37.95;;;;;;;3.72;nan;100315.91;5039782;28;20033;-74
2022/01/04 06:01:52;;;;;;;70.72;37.30;;;;;;;3.71;nan;100309.06;5041783;28;20044;-77
2022/01/04 06:04:18;;;;;;;71.30;37.50;;;;;;;3.66;nan;100304.41;5044487;28;20437;-74
2022/01/04 06:06:43;;;;;;;73.68;36.92;;;;;;;3.72;nan;100311.50;5044191;28;20041;-73
2022/01/04 06:09:18;;;;;;;70.65;36.97;;;;;;;3.73;nan;100314.91;5053314;28;20040;-74
2022/01/04 06:11:56;;;;;;;78.82;37.30;;;;;;;3.62;nan;100296.16;5036127;28;20029;-74
2022/01/04 06:17:09;;;;;;;80.00;40.38;;;;;;;3.67;nan;100306.03;5050634;28;20479;-75
2022/01/04 06:19:35;;;;;;;82.65;40.42;;;;;;;3.61;nan;100289.31;5036438;28;20038;-75
2022/01/04 06:22:00;;;;;;;77.38;38.97;;;;;;;3.67;nan;100294.81;5032896;28;20045;-74
2022/01/04 06:24:26;;;;;;;74.35;38.28;;;;;;;3.63;nan;100289.97;5046600;28;20471;-73
2022/01/04 06:26:52;;;;;;;75.15;38.38;;;;;;;3.62;nan;100290.16;5053590;28;20084;-74
2022/01/04 06:29:20;;;;;;;71.93;37.45;;;;;;;3.70;nan;100302.25;5035086;28;20114;-74
2022/01/04 06:31:45;;;;;;;1999.90;997.47;;;;;;;3.70;nan;100286.63;5053132;28;20399;-74
2022/01/04 06:34:10;;;;;;;147.30;63.20;;;;;;;4.02;nan;100294.03;5052783;28;20037;-74
2022/01/04 06:36:36;;;;;;;136.20;59.83;;;;;;;4.12;nan;100303.31;5052554;28;20402;-74
2022/01/04 06:39:01;;;;;;;102.78;49.08;;;;;;;4.04;nan;100296.44;5052787;28;20412;-73
2022/01/04 06:41:27;;;;;;;84.82;42.97;;;;;;;3.96;nan;100299.16;5048524;28;20032;-73
2022/01/04 06:43:52;;;;;;;76.68;40.28;;;;;;;3.84;nan;100291.00;5035301;28;20040;-74
2022/01/04 06:46:17;;;;;;;66.93;36.10;;;;;;;3.77;nan;100300.53;5053174;28;20032;-74
2022/01/04 06:48:43;;;;;;;71.88;36.85;;;;;;;3.73;nan;100283.66;5035126;28;20033;-73
2022/01/04 06:51:09;;;;;;;67.68;36.75;;;;;;;3.74;nan;100301.72;5036326;28;20039;-74
2022/01/04 06:53:35;;;;;;;74.75;37.78;;;;;;;3.71;nan;100293.44;5034626;28;20065;-74
2022/01/04 06:56:00;;;;;;;71.95;37.40;;;;;;;3.71;nan;100303.88;5052939;28;20061;-74
2022/01/04 06:58:26;;;;;;;67.68;37.58;;;;;;;3.69;nan;100298.03;5053145;28;20029;-74
2022/01/04 07:00:52;;;;;;;65.68;35.30;;;;;;;3.68;nan;100294.63;5052777;28;20043;-74
2022/01/04 07:03:17;;;;;;;68.68;36.38;;;;;;;3.61;nan;100286.72;5033397;28;20407;-74
2022/01/04 07:05:43;;;;;;;71.47;37.35;;;;;;;3.59;nan;100277.47;5052732;28;20406;-73
2022/01/04 07:08:08;;;;;;;65.47;35.45;;;;;;;3.62;nan;100280.53;5052830;28;20170;-74
2022/01/04 07:10:34;;;;;;;70.60;36.42;;;;;;;3.63;nan;100286.56;5052874;28;20033;-74
2022/01/04 07:12:59;;;;;;;67.90;35.80;;;;;;;3.61;nan;100281.50;5052474;28;20021;-74
2022/01/04 07:15:25;;;;;;;71.18;36.88;;;;;;;3.58;nan;100276.69;5034204;28;20029;-74
2022/01/04 07:17:50;;;;;;;68.78;36.10;;;;;;;3.58;nan;100279.28;5048748;28;20036;-74
2022/01/04 07:20:16;;;;;;;70.28;35.00;;;;;;;3.60;nan;100272.09;5046702;28;20041;-74
2022/01/04 07:22:41;;;;;;;62.63;34.75;;;;;;;3.55;nan;100258.81;5051151;28;20029;-75
2022/01/04 07:25:07;;;;;;;64.03;34.53;;;;;;;3.57;nan;100250.84;5052326;28;20053;-73
2022/01/04 07:27:33;;;;;;;67.60;35.17;;;;;;;3.58;nan;100261.06;5030301;28;20033;-74
2022/01/04 07:29:59;;;;;;;69.55;35.85;;;;;;;3.48;nan;100241.53;5046092;28;20037;-74
2022/01/04 07:32:24;;;;;;;65.93;35.28;;;;;;;3.74;nan;100272.28;5033509;28;20029;-74
2022/01/04 07:34:50;;;;;;;60.92;33.67;;;;;;;3.73;nan;100255.00;5035029;28;20371;-75
2022/01/04 07:37:15;;;;;;;76.53;38.00;;;;;;;3.75;nan;100258.25;5034377;28;20722;-74
2022/01/04 07:39:41;;;;;;;67.07;35.13;;;;;;;3.82;nan;100261.72;5046713;28;20397;-74
2022/01/04 07:42:06;;;;;;;72.32;34.80;;;;;;;3.79;nan;100247.28;5037885;28;20044;-74
2022/01/04 07:44:32;;;;;;;70.22;36.22;;;;;;;3.89;nan;100260.00;5036113;28;20124;-74
2022/01/04 07:46:58;;;;;;;63.85;34.75;;;;;;;3.94;nan;100260.25;5030407;28;20033;-74
2022/01/04 07:49:23;;;;;;;65.50;34.47;;;;;;;3.92;nan;100245.81;5033745;28;20040;-74
2022/01/04 07:51:49;;;;;;;68.45;35.58;;;;;;;4.05;nan;100261.59;5052031;28;20094;-74
2022/01/04 07:54:14;;;;;;;65.10;35.30;;;;;;;4.11;nan;100253.00;5052402;28;20029;-73
2022/01/04 07:56:40;;;;;;;63.72;33.55;;;;;;;4.17;nan;100246.25;5037600;28;20083;-74
2022/01/04 07:59:05;;;;;;;66.88;34.70;;;;;;;4.20;nan;100240.66;5051083;28;20037;-74
2022/01/04 08:01:31;;;;;;;65.57;35.22;;;;;;;4.30;nan;100245.56;5051424;28;20386;-74
2022/01/04 08:03:57;;;;;;;63.30;31.92;;;;;;;4.35;nan;100241.38;5033988;28;20432;-74
2022/01/04 08:06:23;;;;;;;60.75;32.78;;;;;;;4.32;nan;100222.72;5050710;28;20037;-73
2022/01/04 08:08:49;;;;;;;64.03;31.90;;;;;;;4.44;nan;100229.03;5051558;28;20036;-74
2022/01/04 08:11:15;;;;;;;59.08;31.70;;;;;;;4.46;nan;100214.03;5033185;28;20112;-74
2022/01/04 08:13:40;;;;;;;61.33;32.35;;;;;;;4.55;nan;100212.06;5045294;28;20029;-74
2022/01/04 08:16:05;;;;;;;59.72;30.08;;;;;;;4.68;nan;100212.97;5050523;28;20094;-74
2022/01/04 08:18:31;;;;;;;58.47;31.13;;;;;;;4.76;nan;100208.59;5051599;28;20112;-74
2022/01/04 08:20:57;;;;;;;56.25;29.30;;;;;;;4.78;nan;100198.78;5034344;28;20037;-75
2022/01/04 08:23:26;;;;;;;54.78;28.95;;;;;;;4.89;nan;100196.44;5056645;28;20089;-74
2022/01/04 08:25:52;;;;;;;51.88;28.60;;;;;;;5.02;nan;100200.91;5050450;28;20039;-74
2022/01/04 08:28:17;;;;;;;54.75;29.52;;;;;;;5.01;nan;100195.91;5051529;28;20044;-74
2022/01/04 08:30:43;;;;;;;53.95;27.88;;;;;;;5.10;nan;100203.38;5032700;28;20149;-74
2022/01/04 08:33:11;;;;;;;54.95;29.45;;;;;;;5.15;nan;100204.59;5051093;28;20028;-74
2022/01/04 08:35:38;;;;;;;51.55;29.95;;;;;;;5.27;nan;100223.94;5033866;28;20488;-74
2022/01/04 08:38:05;;;;;;;49.33;26.73;;;;;;;5.27;nan;100210.88;5032953;28;20045;-74
2022/01/04 08:40:30;;;;;;;49.67;26.55;;;;;;;5.45;nan;100233.84;5050908;28;20041;-74
2022/01/04 08:42:56;;;;;;;50.03;26.45;;;;;;;5.49;nan;100208.94;5035296;28;20029;-74
2022/01/04 08:45:23;;;;;;;46.33;26.20;;;;;;;;;;5042040;28;20136;-75
2022/01/04 08:47:49;;;;;;;47.28;26.23;;;;;;;;;;5045361;28;20043;-74
2022/01/04 08:50:15;;;;;;;46.97;25.00;;;;;;;5.76;nan;100218.47;5036127;28;20037;-74
2022/01/04 08:52:41;;;;;;;46.95;24.83;;;;;;;5.88;nan;100234.38;5027039;28;20021;-74
2022/01/04 08:55:08;;;;;;;47.08;24.23;;;;;;;5.97;nan;100240.25;5051992;28;20041;-75
2022/01/04 08:57:34;;;;;;;43.10;23.00;;;;;;;5.96;nan;100213.31;5050590;28;20229;-73
2022/01/04 09:00:00;;;;;;;44.75;22.90;;;;;;;6.13;nan;100220.75;5045398;28;20043;-74
2022/01/04 09:02:25;;;;;;;43.97;23.38;;;;;;;6.27;nan;100216.34;5037128;28;20033;-74
2022/01/04 09:04:51;;;;;;;40.72;22.13;;;;;;;6.30;nan;100208.91;5050602;28;20107;-72
2022/01/04 09:07:17;;;;;;;44.42;22.55;;;;;;;6.44;nan;100206.28;5036519;28;20506;-73
2022/01/04 09:09:43;;;;;;;41.75;22.65;;;;;;;6.50;nan;100201.06;5054735;28;20078;-73
2022/01/04 09:12:08;;;;;;;45.35;21.70;;;;;;;6.58;nan;100195.63;5036381;28;20118;-74
2022/01/04 09:19:54;;;;;;;42.25;22.55;;;;;;;6.90;nan;100195.75;5052890;28;20033;-76
2022/01/04 09:22:19;;;;;;;39.42;22.30;;;;;;;6.91;nan;100173.81;5031552;28;20057;-75
2022/01/04 09:24:45;;;;;;;39.70;22.58;;;;;;;7.07;nan;100193.50;5040466;28;20483;-75
2022/01/04 09:27:10;;;;;;;39.42;20.23;;;;;;;7.06;nan;100168.31;5043071;28;20502;-75
2022/01/04 09:29:36;;;;;;;38.78;21.35;;;;;;;7.24;nan;100170.25;5051306;28;20128;-74
2022/01/04 09:32:03;;;;;;;37.60;21.30;;;;;;;7.39;nan;100177.84;5050692;28;20402;-76
2022/01/04 09:34:29;;;;;;;40.20;20.48;;;;;;;7.44;nan;100165.72;5054924;28;20254;-75
2022/01/04 09:36:55;;;;;;;37.65;21.90;;;;;;;7.58;nan;100178.75;5036498;28;20086;-75
2022/01/04 09:39:24;;;;;;;35.83;20.85;;;;;;;7.68;nan;100171.22;5053819;28;20509;-75
2022/01/04 09:41:51;;;;;;;35.78;20.42;;;;;;;7.70;nan;100156.09;5054848;28;20144;-75
2022/01/04 09:44:17;;;;;;;36.38;20.27;;;;;;;7.60;nan;100119.09;5036165;28;20037;-75
2022/01/04 09:46:43;;;;;;;34.13;19.83;;;;;;;7.94;nan;100158.97;5035793;28;20044;-75
2022/01/04 09:49:10;;;;;;;34.42;19.58;;;;;;;8.01;nan;100155.28;5035708;28;20115;-75
2022/01/04 09:51:40;;;;;;;31.92;18.30;;;;;;;8.10;nan;100153.19;5069795;28;20051;-75
2022/01/04 09:54:06;;;;;;;31.67;18.92;;;;;;;8.13;nan;100137.03;5046587;28;20123;-75
2022/01/04 09:56:32;;;;;;;30.60;17.27;;;;;;;8.22;nan;100127.88;5053812;28;20367;-75
2022/01/04 09:58:57;;;;;;;30.00;17.70;;;;;;;8.29;nan;100118.13;5052355;28;20036;-75
2022/01/04 10:01:32;;;;;;;27.23;16.25;;;;;;;8.42;nan;100121.66;5045005;28;20047;-74
2022/01/04 10:03:58;;;;;;;33.35;16.55;;;;;;;8.42;nan;100117.19;5054107;28;20033;-75
2022/01/04 10:06:23;;;;;;;26.05;15.80;;;;;;;8.49;nan;100117.94;5053419;28;20048;-74
2022/01/04 10:08:54;;;;;;;28.15;16.73;;;;;;;8.59;nan;100133.19;5051954;28;20094;-75
2022/01/04 10:11:36;;;;;;;28.50;16.35;;;;;;;8.64;nan;100125.47;5053226;28;20437;-75
2022/01/04 10:14:27;;;;;;;24.73;14.63;;;;;;;8.67;nan;100134.75;5044483;28;20064;-75
2022/01/04 10:16:54;;;;;;;25.67;15.63;;;;;;;8.61;nan;100120.66;5042881;28;20072;-75
2022/01/04 10:19:34;;;;;;;26.20;16.00;;;;;;;8.64;nan;100117.59;5042172;28;20052;-75
2022/01/04 10:22:27;;;;;;;25.70;14.45;;;;;;;8.73;nan;100112.84;5038512;28;20042;-75
2022/01/04 10:25:05;;;;;;;25.27;14.43;;;;;;;8.81;nan;100119.63;5043196;28;20061;-75
2022/01/04 10:27:34;;;;;;;31.35;17.27;;;;;;;8.81;nan;100109.13;5050345;28;20390;-75
2022/01/04 10:30:22;;;;;;;36.75;17.02;;;;;;;8.89;nan;100108.84;5051517;28;20375;-75
2022/01/04 10:32:56;;;;;;;28.30;16.90;;;;;;;8.91;nan;100104.16;5053758;28;20040;-75
2022/01/04 10:35:29;;;;;;;28.60;15.93;;;;;;;8.95;nan;100102.69;5046060;28;20386;-74
2022/01/04 10:37:56;;;;;;;29.92;16.33;;;;;;;8.87;nan;100088.03;5041850;28;20032;-74
2022/01/04 10:40:23;;;;;;;25.85;15.60;;;;;;;9.00;nan;100096.78;5039453;28;20146;-74
2022/01/04 10:42:48;;;;;;;26.30;15.50;;;;;;;9.01;nan;100095.75;5018089;28;20036;-74
2022/01/04 10:45:32;;;;;;;24.70;15.02;;;;;;;9.01;nan;100101.81;5033785;28;20033;-75
2022/01/04 10:48:15;;;;;;;31.20;15.90;;;;;;;8.94;nan;100083.50;5027463;28;20090;-75
2022/01/04 10:50:42;;;;;;;30.58;15.27;;;;;;;9.09;nan;100104.13;5053699;28;20029;-75
2022/01/04 10:53:15;;;;;;;27.33;15.23;;;;;;;9.10;nan;100087.34;5050351;28;20094;-75
2022/01/04 10:55:40;;;;;;;25.73;15.57;;;;;;;9.16;nan;100085.66;5040783;28;20022;-76
2022/01/04 10:58:06;;;;;;;27.67;15.55;;;;;;;9.03;nan;100057.75;5029943;28;20037;-75
2022/01/04 11:00:31;;;;;;;22.73;14.32;;;;;;;9.16;nan;100062.00;5034171;28;20085;-76
2022/01/04 11:03:00;;;;;;;27.63;15.95;;;;;;;9.25;nan;100049.38;5050179;28;20029;-75
2022/01/04 11:05:26;;;;;;;25.70;14.97;;;;;;;9.33;nan;100046.41;5043432;28;20164;-75
2022/01/04 11:08:01;;;;;;;29.30;15.55;;;;;;;9.43;nan;100051.09;5031366;28;20157;-75
2022/01/04 11:10:29;;;;;;;25.63;15.85;;;;;;;9.41;nan;100040.00;5039773;28;20394;-74
2022/01/04 11:12:59;;;;;;;26.42;14.32;;;;;;;9.48;nan;100044.16;5020994;28;20112;-75
2022/01/04 11:15:25;;;;;;;21.33;13.70;;;;;;;9.55;nan;100038.78;5039314;28;20030;-75
2022/01/04 11:17:50;;;;;;;26.83;14.40;;;;;;;9.51;nan;100027.94;5026323;28;20456;-76
2022/01/04 11:20:17;;;;;;;25.60;14.27;;;;;;;9.70;nan;100035.72;5047374;28;20068;-75
2022/01/04 11:22:45;;;;;;;27.58;16.38;;;;;;;9.84;nan;100031.84;5052576;28;20032;-75
2022/01/04 11:25:13;;;;;;;28.50;16.77;;;;;;;9.93;nan;100017.31;5052435;28;20033;-74
2022/01/04 11:27:40;;;;;;;25.05;16.08;;;;;;;10.06;nan;100029.44;5052399;28;20037;-75
2022/01/04 11:30:23;;;;;;;24.67;13.90;;;;;;;10.13;nan;100018.78;5044363;28;20073;-74
2022/01/04 11:32:55;;;;;;;26.00;15.55;;;;;;;10.22;nan;100020.84;5021404;28;20029;-75
2022/01/04 11:35:22;;;;;;;26.35;15.93;;;;;;;10.23;nan;100016.38;5052425;28;20082;-77
2022/01/04 11:37:56;;;;;;;26.00;15.40;;;;;;;10.16;nan;99989.38;5034137;28;20132;-75
2022/01/04 11:40:34;;;;;;;30.67;15.30;;;;;;;10.23;nan;99997.94;5033534;28;20048;-75
2022/01/04 11:43:00;;;;;;;24.40;14.95;;;;;;;10.32;nan;100001.03;5033912;28;20045;-75